createdAt,value
2019-02-02T00:00:17.799Z,83.35
2019-02-02T00:01:17.792Z,83.04
2019-02-02T00:02:17.789Z,82.72
2019-02-02T00:03:17.770Z,83.80
2019-02-02T00:04:17.829Z,83.66
2019-02-02T00:05:17.749Z,84.01
2019-02-02T00:06:17.813Z,84.22
2019-02-02T00:07:17.738Z,83.59
2019-02-02T00:08:17.721Z,83.59
2019-02-02T00:09:17.714Z,84.12
2019-02-02T00:10:17.695Z,84.22
2019-02-02T00:11:17.689Z,83.66
2019-02-02T00:12:17.684Z,84.22
2019-02-02T00:13:17.659Z,83.97
2019-02-02T00:14:17.651Z,84.22
2019-02-02T00:15:17.643Z,84.60
2019-02-02T00:16:17.632Z,84.74
2019-02-02T00:17:17.630Z,84.84
2019-02-02T00:18:17.610Z,84.64
2019-02-02T00:19:17.597Z,84.53
2019-02-02T00:20:17.589Z,85.26
2019-02-02T00:21:17.582Z,84.53
2019-02-02T00:22:17.634Z,84.50
2019-02-02T00:23:17.556Z,84.84
2019-02-02T00:24:17.576Z,84.74
2019-02-02T00:25:17.686Z,85.05
2019-02-02T00:26:17.531Z,85.16
2019-02-02T00:27:17.519Z,84.95
2019-02-02T00:28:17.528Z,85.12
2019-02-02T00:29:17.493Z,84.74
2019-02-02T00:30:17.483Z,84.64
2019-02-02T00:31:17.474Z,84.64
2019-02-02T00:32:17.461Z,84.67
2019-02-02T00:33:17.466Z,85.05
2019-02-02T00:34:17.443Z,85.16
2019-02-02T00:35:17.451Z,85.78
2019-02-02T00:36:17.419Z,85.61
2019-02-02T00:37:18.404Z,85.99
2019-02-02T00:38:17.418Z,85.16
2019-02-02T00:39:17.408Z,85.10
2019-02-02T00:40:17.382Z,85.16
2019-02-02T00:41:17.371Z,84.74
2019-02-02T00:42:17.356Z,85.16
2019-02-02T00:43:17.360Z,84.84
2019-02-02T00:44:17.337Z,84.53
2019-02-02T00:45:17.325Z,85.20
2019-02-02T00:46:17.320Z,85.72
2019-02-02T00:47:17.307Z,85.72
2019-02-02T00:48:17.305Z,85.41
2019-02-02T00:49:17.296Z,85.78
2019-02-02T00:50:17.288Z,85.51
2019-02-02T00:51:17.261Z,85.72
2019-02-02T00:52:17.263Z,85.72
2019-02-02T00:53:17.254Z,85.89
2019-02-02T00:54:17.232Z,85.68
2019-02-02T00:55:17.220Z,85.93
2019-02-02T00:56:17.208Z,86.13
2019-02-02T00:57:17.198Z,86.66
2019-02-02T00:58:17.226Z,86.13
2019-02-02T00:59:17.200Z,86.55
2019-02-02T01:00:17.194Z,86.66
2019-02-02T01:01:17.157Z,86.97
2019-02-02T01:02:17.148Z,86.66
2019-02-02T01:03:17.158Z,86.97
2019-02-02T01:04:17.164Z,87.07
2019-02-02T01:05:17.119Z,86.76
2019-02-02T01:06:17.128Z,87.07
2019-02-02T01:07:17.095Z,87.28
2019-02-02T01:08:17.098Z,87.28
2019-02-02T01:09:17.074Z,87.49
2019-02-02T01:10:17.066Z,87.81
2019-02-02T01:11:17.051Z,87.81
2019-02-02T01:12:17.042Z,87.49
2019-02-02T01:13:17.040Z,87.60
2019-02-02T01:14:17.021Z,87.70
2019-02-02T01:15:17.010Z,87.70
2019-02-02T01:16:17.003Z,87.91
2019-02-02T01:17:16.989Z,88.32
2019-02-02T01:18:17.002Z,88.53
2019-02-02T01:19:16.971Z,88.43
2019-02-02T01:20:16.990Z,88.85
2019-02-02T01:21:16.949Z,88.89
2019-02-02T01:22:16.941Z,88.85
2019-02-02T01:23:16.942Z,89.20
2019-02-02T01:24:16.918Z,89.72
2019-02-02T01:25:16.910Z,88.99
2019-02-02T01:26:17.017Z,89.31
2019-02-02T01:27:16.885Z,89.51
2019-02-02T01:28:16.884Z,90.25
2019-02-02T01:29:16.861Z,90.03
2019-02-02T01:30:16.851Z,89.72
2019-02-02T01:31:16.838Z,90.35
2019-02-02T01:32:16.831Z,89.72
2019-02-02T01:33:16.832Z,89.72
2019-02-02T01:34:16.809Z,90.25
2019-02-02T01:35:16.825Z,90.45
2019-02-02T01:36:16.785Z,90.14
2019-02-02T01:37:16.778Z,90.03
2019-02-02T01:38:16.796Z,90.56
2019-02-02T01:39:16.760Z,90.03
2019-02-02T01:40:16.743Z,90.66
2019-02-02T01:41:16.736Z,90.25
2019-02-02T01:42:16.722Z,90.45
2019-02-02T01:43:16.715Z,90.45
2019-02-02T01:44:16.722Z,90.56
2019-02-02T01:45:16.693Z,90.45
2019-02-02T01:46:16.681Z,90.66
2019-02-02T01:47:16.670Z,90.77
2019-02-02T01:48:16.658Z,90.66
2019-02-02T01:49:16.682Z,90.66
2019-02-02T01:50:16.636Z,90.66
2019-02-02T01:51:16.629Z,90.81
2019-02-02T01:52:16.624Z,90.97
2019-02-02T01:53:16.608Z,91.18
2019-02-02T01:54:16.608Z,90.97
2019-02-02T01:55:16.590Z,91.08
2019-02-02T01:56:16.573Z,91.08
2019-02-02T01:57:16.566Z,91.18
2019-02-02T01:58:17.174Z,90.60
2019-02-02T01:59:16.554Z,91.08
2019-02-02T02:00:16.540Z,91.18
2019-02-02T02:01:16.529Z,91.50
2019-02-02T02:02:16.517Z,91.71
2019-02-02T02:03:16.515Z,91.75
2019-02-02T02:04:16.500Z,91.85
2019-02-02T02:05:16.480Z,91.96
2019-02-02T02:06:16.472Z,91.71
2019-02-02T02:07:16.463Z,91.54
2019-02-02T02:08:16.457Z,91.64
2019-02-02T02:09:16.446Z,91.81
2019-02-02T02:10:16.426Z,91.91
2019-02-02T02:11:16.427Z,92.33
2019-02-02T02:12:16.406Z,91.71
2019-02-02T02:13:16.396Z,92.33
2019-02-02T02:14:16.396Z,91.91
2019-02-02T02:15:16.376Z,92.22
2019-02-02T02:16:16.362Z,92.02
2019-02-02T02:17:16.351Z,92.22
2019-02-02T02:18:16.343Z,92.22
2019-02-02T02:19:16.356Z,92.02
2019-02-02T02:20:16.361Z,92.06
2019-02-02T02:21:16.308Z,91.81
2019-02-02T02:22:16.298Z,92.22
2019-02-02T02:23:16.292Z,91.75
2019-02-02T02:24:16.294Z,92.33
2019-02-02T02:25:16.307Z,92.22
2019-02-02T02:26:16.262Z,92.02
2019-02-02T02:27:16.280Z,91.81
2019-02-02T02:28:27.481Z,91.81
2019-02-02T02:29:17.240Z,91.71
2019-02-02T02:30:16.229Z,92.02
2019-02-02T02:31:16.210Z,92.02
2019-02-02T02:32:16.201Z,92.12
2019-02-02T02:33:16.185Z,92.02
2019-02-02T02:34:16.190Z,91.60
2019-02-02T02:35:16.169Z,91.91
2019-02-02T02:36:16.160Z,92.22
2019-02-02T02:37:16.144Z,91.91
2019-02-02T02:38:16.131Z,91.81
2019-02-02T02:39:16.133Z,91.81
2019-02-02T02:40:16.112Z,92.33
2019-02-02T02:41:16.098Z,92.22
2019-02-02T02:42:16.090Z,92.33
2019-02-02T02:43:16.082Z,92.02
2019-02-02T02:44:16.080Z,91.91
2019-02-02T02:45:16.226Z,91.91
2019-02-02T02:46:16.049Z,91.91
2019-02-02T02:47:16.041Z,91.81
2019-02-02T02:48:16.026Z,92.12
2019-02-02T02:49:16.028Z,92.02
2019-02-02T02:50:16.026Z,91.91
2019-02-02T02:51:15.994Z,91.87
2019-02-02T02:52:15.983Z,91.91
2019-02-02T02:53:15.973Z,92.02
2019-02-02T02:54:15.996Z,92.02
2019-02-02T02:55:15.960Z,91.81
2019-02-02T02:56:15.940Z,91.81
2019-02-02T02:57:15.933Z,92.02
2019-02-02T02:58:15.933Z,91.81
2019-02-02T02:59:15.913Z,92.12
2019-02-02T03:00:15.910Z,92.33
2019-02-02T03:01:15.892Z,91.91
2019-02-02T03:02:15.881Z,92.12
2019-02-02T03:03:15.869Z,92.02
2019-02-02T03:04:15.863Z,92.12
2019-02-02T03:05:15.858Z,92.33
2019-02-02T03:06:15.835Z,92.12
2019-02-02T03:07:15.823Z,92.22
2019-02-02T03:08:15.814Z,92.33
2019-02-02T03:09:15.804Z,92.65
2019-02-02T03:10:15.812Z,92.33
2019-02-02T03:11:15.781Z,91.81
2019-02-02T03:12:15.773Z,91.87
2019-02-02T03:13:15.775Z,91.81
2019-02-02T03:14:15.759Z,92.12
2019-02-02T03:15:15.763Z,91.77
2019-02-02T03:16:15.733Z,91.60
2019-02-02T03:17:15.719Z,91.87
2019-02-02T03:18:15.718Z,92.18
2019-02-02T03:19:15.697Z,92.33
2019-02-02T03:20:15.704Z,91.87
2019-02-02T03:21:15.678Z,91.87
2019-02-02T03:22:15.717Z,91.66
2019-02-02T03:23:15.668Z,91.66
2019-02-02T03:24:15.649Z,91.35
2019-02-02T03:25:15.660Z,91.35
2019-02-02T03:26:15.801Z,91.04
2019-02-02T03:27:15.615Z,90.62
2019-02-02T03:28:15.603Z,91.04
2019-02-02T03:29:15.594Z,91.35
2019-02-02T03:30:15.612Z,90.93
2019-02-02T03:31:15.581Z,91.04
2019-02-02T03:32:15.567Z,91.25
2019-02-02T03:33:15.550Z,90.83
2019-02-02T03:34:15.549Z,90.93
2019-02-02T03:35:15.543Z,90.83
2019-02-02T03:36:15.524Z,90.72
2019-02-02T03:37:15.506Z,90.72
2019-02-02T03:38:15.498Z,90.72
2019-02-02T03:39:15.486Z,90.93
2019-02-02T03:40:15.488Z,90.83
2019-02-02T03:41:15.469Z,91.35
2019-02-02T03:42:15.457Z,90.83
2019-02-02T03:43:15.441Z,90.62
2019-02-02T03:44:15.432Z,91.04
2019-02-02T03:45:15.434Z,91.25
2019-02-02T03:46:15.417Z,91.25
2019-02-02T03:47:15.405Z,91.14
2019-02-02T03:48:15.388Z,91.35
2019-02-02T03:49:15.381Z,91.35
2019-02-02T03:50:15.392Z,91.25
2019-02-02T03:51:15.363Z,91.14
2019-02-02T03:52:15.365Z,91.39
2019-02-02T03:53:15.341Z,90.93
2019-02-02T03:54:15.324Z,90.52
2019-02-02T03:55:15.335Z,91.04
2019-02-02T03:56:15.304Z,91.25
2019-02-02T03:57:15.292Z,90.93
2019-02-02T03:58:15.284Z,91.04
2019-02-02T03:59:15.277Z,91.14
2019-02-02T04:00:15.287Z,90.93
2019-02-02T04:01:15.258Z,90.52
2019-02-02T04:02:15.244Z,90.52
2019-02-02T04:03:15.232Z,90.83
2019-02-02T04:04:15.219Z,90.52
2019-02-02T04:05:15.438Z,90.83
2019-02-02T04:06:15.200Z,90.83
2019-02-02T04:07:15.201Z,90.93
2019-02-02T04:08:15.177Z,90.93
2019-02-02T04:09:15.176Z,90.41
2019-02-02T04:10:15.159Z,90.97
2019-02-02T04:11:15.160Z,90.97
2019-02-02T04:12:15.136Z,91.14
2019-02-02T04:13:15.131Z,91.25
2019-02-02T04:14:15.117Z,91.04
2019-02-02T04:15:15.109Z,90.52
2019-02-02T04:16:15.103Z,90.45
2019-02-02T04:17:15.083Z,91.08
2019-02-02T04:18:15.072Z,91.25
2019-02-02T04:19:15.063Z,90.72
2019-02-02T04:20:15.052Z,91.04
2019-02-02T04:21:15.053Z,91.25
2019-02-02T04:22:15.028Z,91.56
2019-02-02T04:23:15.021Z,90.93
2019-02-02T04:24:15.010Z,91.25
2019-02-02T04:25:15.004Z,90.62
2019-02-02T04:26:15.002Z,90.62
2019-02-02T04:27:14.978Z,90.72
2019-02-02T04:28:14.967Z,90.93
2019-02-02T04:29:17.813Z,90.72
2019-02-02T04:30:14.947Z,90.72
2019-02-02T04:31:14.946Z,90.31
2019-02-02T04:32:14.923Z,90.79
2019-02-02T04:33:14.923Z,90.10
2019-02-02T04:34:14.907Z,90.47
2019-02-02T04:35:14.894Z,90.47
2019-02-02T04:36:14.895Z,90.52
2019-02-02T04:37:14.876Z,90.26
2019-02-02T04:38:14.860Z,90.10
2019-02-02T04:39:14.865Z,90.62
2019-02-02T04:40:14.991Z,90.62
2019-02-02T04:41:14.838Z,90.52
2019-02-02T04:42:14.817Z,90.72
2019-02-02T04:43:14.808Z,90.79
2019-02-02T04:44:14.805Z,90.31
2019-02-02T04:45:14.785Z,90.41
2019-02-02T04:46:14.789Z,90.31
2019-02-02T04:47:14.767Z,90.20
2019-02-02T04:48:14.754Z,90.10
2019-02-02T04:49:14.749Z,90.20
2019-02-02T04:50:14.740Z,90.10
2019-02-02T04:51:14.732Z,90.31
2019-02-02T04:52:14.712Z,90.25
2019-02-02T04:53:14.703Z,90.62
2019-02-02T04:54:14.699Z,90.31
2019-02-02T04:55:14.695Z,91.04
2019-02-02T04:56:14.682Z,90.41
2019-02-02T04:57:14.658Z,90.83
2019-02-02T04:58:14.649Z,90.52
2019-02-02T04:59:14.638Z,90.52
2019-02-02T05:00:14.638Z,90.31
2019-02-02T05:01:14.653Z,90.26
2019-02-02T05:02:14.609Z,89.89
2019-02-02T05:03:14.599Z,90.20
2019-02-02T05:04:14.585Z,90.52
2019-02-02T05:05:14.576Z,89.89
2019-02-02T05:06:14.577Z,90.31
2019-02-02T05:07:14.593Z,90.20
2019-02-02T05:08:14.552Z,90.20
2019-02-02T05:09:14.552Z,89.89
2019-02-02T05:10:14.529Z,90.41
2019-02-02T05:11:14.546Z,90.41
2019-02-02T05:12:14.506Z,90.41
2019-02-02T05:13:14.496Z,90.41
2019-02-02T05:14:14.480Z,89.89
2019-02-02T05:15:14.472Z,90.31
2019-02-02T05:16:14.484Z,90.41
2019-02-02T05:17:14.480Z,90.52
2019-02-02T05:18:14.445Z,90.52
2019-02-02T05:19:14.430Z,89.68
2019-02-02T05:20:14.418Z,90.20
2019-02-02T05:21:14.721Z,90.52
2019-02-02T05:22:14.394Z,90.31
2019-02-02T05:23:14.389Z,90.20
2019-02-02T05:24:14.378Z,90.20
2019-02-02T05:25:14.366Z,90.41
2019-02-02T05:26:14.355Z,90.41
2019-02-02T05:27:14.360Z,90.41
2019-02-02T05:28:14.334Z,90.00
2019-02-02T05:29:14.326Z,90.41
2019-02-02T05:30:14.318Z,90.41
2019-02-02T05:31:14.300Z,89.78
2019-02-02T05:32:14.307Z,90.52
2019-02-02T05:33:14.282Z,90.20
2019-02-02T05:34:14.271Z,90.31
2019-02-02T05:35:14.266Z,90.10
2019-02-02T05:36:14.249Z,90.31
2019-02-02T05:37:14.259Z,90.72
2019-02-02T05:38:14.225Z,90.72
2019-02-02T05:39:14.218Z,90.10
2019-02-02T05:40:14.204Z,90.72
2019-02-02T05:41:14.193Z,90.72
2019-02-02T05:42:14.195Z,90.87
2019-02-02T05:43:14.174Z,90.83
2019-02-02T05:44:14.163Z,90.20
2019-02-02T05:45:14.155Z,90.87
2019-02-02T05:46:14.144Z,90.52
2019-02-02T05:47:14.147Z,90.62
2019-02-02T05:48:14.122Z,90.35
2019-02-02T05:49:14.111Z,90.31
2019-02-02T05:50:14.100Z,90.77
2019-02-02T05:51:14.101Z,90.41
2019-02-02T05:52:14.092Z,90.00
2019-02-02T05:53:14.069Z,90.41
2019-02-02T05:54:14.058Z,90.41
2019-02-02T05:55:14.049Z,90.62
2019-02-02T05:56:14.037Z,90.10
2019-02-02T05:57:14.036Z,90.62
2019-02-02T05:58:14.022Z,90.31
2019-02-02T05:59:14.012Z,90.41
2019-02-02T06:00:13.995Z,90.10
2019-02-02T06:01:13.987Z,90.31
2019-02-02T06:02:13.984Z,90.41
2019-02-02T06:03:13.959Z,90.41
2019-02-02T06:04:13.964Z,90.31
2019-02-02T06:05:13.940Z,90.20
2019-02-02T06:06:13.951Z,90.41
2019-02-02T06:07:13.950Z,90.37
2019-02-02T06:08:13.921Z,90.00
2019-02-02T06:09:13.907Z,90.47
2019-02-02T06:10:13.890Z,90.16
2019-02-02T06:11:13.889Z,90.16
2019-02-02T06:12:13.892Z,89.32
2019-02-02T06:13:13.859Z,90.41
2019-02-02T06:14:13.858Z,90.37
2019-02-02T06:15:13.834Z,90.41
2019-02-02T06:16:13.823Z,90.37
2019-02-02T06:17:13.827Z,90.47
2019-02-02T06:18:13.807Z,90.37
2019-02-02T06:19:13.795Z,89.64
2019-02-02T06:20:13.786Z,89.64
2019-02-02T06:21:13.775Z,89.43
2019-02-02T06:22:13.774Z,90.47
2019-02-02T06:23:13.752Z,90.58
2019-02-02T06:24:13.738Z,90.16
2019-02-02T06:25:13.731Z,89.95
2019-02-02T06:26:13.769Z,90.26
2019-02-02T06:27:13.772Z,89.85
2019-02-02T06:28:13.733Z,89.58
2019-02-02T06:29:13.690Z,90.58
2019-02-02T06:30:13.677Z,90.47
2019-02-02T06:31:13.667Z,89.95
2019-02-02T06:32:13.689Z,89.43
2019-02-02T06:33:13.648Z,89.22
2019-02-02T06:34:13.637Z,88.91
2019-02-02T06:35:13.634Z,89.43
2019-02-02T06:36:13.623Z,89.54
2019-02-02T06:37:13.622Z,90.37
2019-02-02T06:38:13.592Z,90.26
2019-02-02T06:39:13.588Z,89.95
2019-02-02T06:40:13.582Z,90.06
2019-02-02T06:41:13.570Z,90.26
2019-02-02T06:42:13.563Z,89.32
2019-02-02T06:43:13.540Z,89.32
2019-02-02T06:44:13.577Z,90.16
2019-02-02T06:45:13.521Z,89.85
2019-02-02T06:46:13.514Z,89.91
2019-02-02T06:47:13.508Z,90.06
2019-02-02T06:48:13.490Z,89.95
2019-02-02T06:49:13.478Z,89.81
2019-02-02T06:50:13.471Z,89.39
2019-02-02T06:51:13.464Z,90.16
2019-02-02T06:52:13.455Z,90.01
2019-02-02T06:53:13.440Z,89.85
2019-02-02T06:54:13.425Z,90.26
2019-02-02T06:55:13.414Z,88.76
2019-02-02T06:56:13.408Z,89.29
2019-02-02T06:57:13.404Z,89.39
2019-02-02T06:58:13.396Z,89.39
2019-02-02T06:59:13.372Z,88.91
2019-02-02T07:00:16.083Z,89.39
2019-02-02T07:01:13.359Z,90.16
2019-02-02T07:02:13.350Z,89.95
2019-02-02T07:03:13.336Z,90.01
2019-02-02T07:04:13.331Z,89.43
2019-02-02T07:05:13.316Z,89.43
2019-02-02T07:06:13.297Z,89.43
2019-02-02T07:07:13.315Z,89.32
2019-02-02T07:08:13.277Z,89.43
2019-02-02T07:09:13.267Z,90.01
2019-02-02T07:10:13.263Z,90.06
2019-02-02T07:11:13.247Z,89.85
2019-02-02T07:12:13.261Z,90.16
2019-02-02T07:13:13.226Z,89.85
2019-02-02T07:14:13.215Z,90.47
2019-02-02T07:15:13.215Z,90.47
2019-02-02T07:16:13.199Z,90.58
2019-02-02T07:17:13.196Z,89.54
2019-02-02T07:18:13.171Z,90.22
2019-02-02T07:19:13.163Z,90.12
2019-02-02T07:20:13.153Z,89.43
2019-02-02T07:21:13.140Z,90.16
2019-02-02T07:22:13.148Z,90.01
2019-02-02T07:23:13.147Z,90.01
2019-02-02T07:24:13.111Z,89.91
2019-02-02T07:25:13.110Z,90.16
2019-02-02T07:26:13.091Z,90.22
2019-02-02T07:27:13.097Z,89.85
2019-02-02T07:28:13.081Z,89.91
2019-02-02T07:29:13.060Z,90.33
2019-02-02T07:30:13.051Z,90.58
2019-02-02T07:31:13.038Z,90.58
2019-02-02T07:32:13.041Z,90.37
2019-02-02T07:33:13.039Z,90.58
2019-02-02T07:34:13.006Z,89.85
2019-02-02T07:35:12.994Z,89.85
2019-02-02T07:36:12.987Z,90.06
2019-02-02T07:37:12.975Z,90.58
2019-02-02T07:38:12.977Z,90.16
2019-02-02T07:39:12.954Z,89.70
2019-02-02T07:40:12.946Z,89.95
2019-02-02T07:41:12.932Z,90.16
2019-02-02T07:42:12.919Z,89.95
2019-02-02T07:43:12.922Z,89.81
2019-02-02T07:44:12.902Z,89.85
2019-02-02T07:45:12.888Z,90.06
2019-02-02T07:46:14.896Z,90.06
2019-02-02T07:47:12.870Z,90.47
2019-02-02T07:48:12.876Z,90.44
2019-02-02T07:49:12.849Z,89.81
2019-02-02T07:50:12.840Z,90.22
2019-02-02T07:51:12.828Z,90.22
2019-02-02T07:52:12.868Z,90.22
2019-02-02T07:53:12.814Z,89.08
2019-02-02T07:54:12.795Z,89.39
2019-02-02T07:55:12.791Z,88.87
2019-02-02T07:56:12.774Z,89.50
2019-02-02T07:57:12.764Z,89.08
2019-02-02T07:58:12.840Z,89.60
2019-02-02T07:59:12.744Z,89.39
2019-02-02T08:00:12.740Z,89.50
2019-02-02T08:01:12.722Z,89.18
2019-02-02T08:02:12.717Z,89.08
2019-02-02T08:03:12.714Z,89.08
2019-02-02T08:04:12.693Z,89.08
2019-02-02T08:05:12.805Z,89.29
2019-02-02T08:06:12.675Z,89.08
2019-02-02T08:07:12.658Z,88.56
2019-02-02T08:08:12.696Z,88.24
2019-02-02T08:09:12.639Z,88.76
2019-02-02T08:10:12.637Z,88.76
2019-02-02T08:11:12.742Z,89.29
2019-02-02T08:12:12.613Z,89.08
2019-02-02T08:13:12.615Z,88.98
2019-02-02T08:14:12.592Z,88.87
2019-02-02T08:15:12.597Z,89.29
2019-02-02T08:16:12.566Z,89.08
2019-02-02T08:17:12.559Z,89.29
2019-02-02T08:18:12.589Z,89.60
2019-02-02T08:19:12.537Z,89.50
2019-02-02T08:20:12.521Z,89.39
2019-02-02T08:21:12.511Z,89.70
2019-02-02T08:22:12.503Z,89.60
2019-02-02T08:23:12.504Z,90.01
2019-02-02T08:24:12.484Z,89.91
2019-02-02T08:25:12.469Z,89.70
2019-02-02T08:26:12.471Z,90.22
2019-02-02T08:27:12.450Z,90.33
2019-02-02T08:28:12.476Z,90.01
2019-02-02T08:29:12.433Z,89.91
2019-02-02T08:30:12.416Z,89.81
2019-02-02T08:31:12.407Z,89.50
2019-02-02T08:32:12.409Z,89.18
2019-02-02T08:33:12.396Z,89.18
2019-02-02T08:34:12.376Z,90.22
2019-02-02T08:35:12.367Z,89.45
2019-02-02T08:36:12.358Z,88.98
2019-02-02T08:37:12.344Z,89.35
2019-02-02T08:38:12.344Z,89.39
2019-02-02T08:39:12.321Z,89.35
2019-02-02T08:40:12.318Z,89.25
2019-02-02T08:41:12.300Z,89.04
2019-02-02T08:42:12.295Z,89.04
2019-02-02T08:43:12.300Z,89.45
2019-02-02T08:44:12.272Z,89.00
2019-02-02T08:45:12.263Z,88.89
2019-02-02T08:46:12.250Z,88.37
2019-02-02T08:47:12.273Z,88.27
2019-02-02T08:48:12.252Z,88.48
2019-02-02T08:49:12.223Z,88.48
2019-02-02T08:50:12.209Z,88.58
2019-02-02T08:51:12.196Z,88.58
2019-02-02T08:52:12.186Z,88.58
2019-02-02T08:53:12.201Z,88.48
2019-02-02T08:54:12.174Z,88.58
2019-02-02T08:55:12.328Z,88.79
2019-02-02T08:56:12.199Z,88.17
2019-02-02T08:57:12.146Z,88.37
2019-02-02T08:58:12.139Z,88.58
2019-02-02T08:59:12.114Z,88.37
2019-02-02T09:00:12.107Z,88.43
2019-02-02T09:01:12.090Z,87.96
2019-02-02T09:02:12.092Z,87.85
2019-02-02T09:03:12.099Z,87.50
2019-02-02T09:04:12.072Z,87.43
2019-02-02T09:05:12.093Z,87.33
2019-02-02T09:06:12.165Z,87.75
2019-02-02T09:07:12.030Z,87.96
2019-02-02T09:08:12.033Z,88.58
2019-02-02T09:09:12.016Z,88.27
2019-02-02T09:10:12.000Z,88.43
2019-02-02T09:11:11.989Z,88.48
2019-02-02T09:12:11.990Z,88.06
2019-02-02T09:13:11.982Z,87.81
2019-02-02T09:14:11.958Z,87.96
2019-02-02T09:15:11.944Z,87.92
2019-02-02T09:16:11.938Z,87.23
2019-02-02T09:17:11.925Z,87.29
2019-02-02T09:18:12.004Z,87.29
2019-02-02T09:19:11.904Z,87.50
2019-02-02T09:20:11.891Z,87.50
2019-02-02T09:21:11.882Z,87.29
2019-02-02T09:22:11.892Z,87.50
2019-02-02T09:23:11.879Z,87.71
2019-02-02T09:24:11.851Z,87.60
2019-02-02T09:25:11.844Z,86.98
2019-02-02T09:26:11.831Z,86.67
2019-02-02T09:27:11.822Z,87.40
2019-02-02T09:28:11.825Z,87.19
2019-02-02T09:29:11.965Z,87.60
2019-02-02T09:30:11.825Z,87.29
2019-02-02T09:31:15.792Z,87.08
2019-02-02T09:32:11.766Z,87.50
2019-02-02T09:33:11.768Z,87.50
2019-02-02T09:34:11.751Z,87.19
2019-02-02T09:35:11.744Z,86.77
2019-02-02T09:36:11.729Z,86.57
2019-02-02T09:37:11.725Z,87.40
2019-02-02T09:38:12.332Z,87.15
2019-02-02T09:39:11.693Z,87.19
2019-02-02T09:40:11.700Z,87.04
2019-02-02T09:41:11.674Z,87.15
2019-02-02T09:42:11.666Z,87.04
2019-02-02T09:43:11.685Z,86.83
2019-02-02T09:44:11.646Z,86.94
2019-02-02T09:45:11.632Z,87.15
2019-02-02T09:46:11.619Z,87.46
2019-02-02T09:47:11.619Z,86.52
2019-02-02T09:48:11.601Z,86.52
2019-02-02T09:49:11.606Z,87.46
2019-02-02T09:50:11.721Z,86.63
2019-02-02T09:51:11.569Z,86.83
2019-02-02T09:52:11.559Z,87.46
2019-02-02T09:53:11.557Z,87.25
2019-02-02T09:54:12.012Z,87.25
2019-02-02T09:55:11.559Z,87.04
2019-02-02T09:56:11.518Z,86.83
2019-02-02T09:57:11.507Z,86.94
2019-02-02T09:58:11.497Z,87.04
2019-02-02T09:59:11.536Z,87.25
2019-02-02T10:00:11.477Z,86.63
2019-02-02T10:01:11.467Z,86.42
2019-02-02T10:02:11.453Z,86.00
2019-02-02T10:03:11.442Z,86.42
2019-02-02T10:04:11.520Z,86.83
2019-02-02T10:05:11.421Z,86.90
2019-02-02T10:06:11.430Z,86.90
2019-02-02T10:07:11.402Z,86.38
2019-02-02T10:08:11.392Z,85.69
2019-02-02T10:09:11.390Z,85.96
2019-02-02T10:10:11.408Z,86.17
2019-02-02T10:11:11.364Z,86.17
2019-02-02T10:12:11.347Z,86.27
2019-02-02T10:13:11.338Z,86.07
2019-02-02T10:14:11.340Z,86.17
2019-02-02T10:15:11.318Z,86.17
2019-02-02T10:16:11.305Z,86.59
2019-02-02T10:17:11.301Z,86.27
2019-02-02T10:18:11.286Z,86.27
2019-02-02T10:19:11.285Z,86.17
2019-02-02T10:20:11.271Z,86.27
2019-02-02T10:21:11.252Z,85.96
2019-02-02T10:22:11.242Z,85.65
2019-02-02T10:23:11.232Z,85.75
2019-02-02T10:24:11.239Z,85.44
2019-02-02T10:25:11.214Z,85.44
2019-02-02T10:26:11.201Z,85.65
2019-02-02T10:27:11.191Z,85.75
2019-02-02T10:28:14.009Z,85.34
2019-02-02T10:29:11.180Z,85.20
2019-02-02T10:30:11.160Z,85.34
2019-02-02T10:31:11.152Z,85.24
2019-02-02T10:32:11.143Z,85.82
2019-02-02T10:33:11.131Z,85.75
2019-02-02T10:34:12.468Z,85.13
2019-02-02T10:35:11.120Z,85.20
2019-02-02T10:36:11.101Z,84.99
2019-02-02T10:37:11.093Z,85.20
2019-02-02T10:38:11.080Z,85.30
2019-02-02T10:39:11.080Z,85.41
2019-02-02T10:40:11.056Z,85.30
2019-02-02T10:41:11.052Z,85.20
2019-02-02T10:42:11.047Z,85.20
2019-02-02T10:43:11.030Z,85.41
2019-02-02T10:44:11.031Z,85.51
2019-02-02T10:45:11.010Z,85.51
2019-02-02T10:46:11.019Z,85.51
2019-02-02T10:47:10.993Z,85.10
2019-02-02T10:48:10.978Z,85.65
2019-02-02T10:49:10.981Z,85.41
2019-02-02T10:50:10.954Z,85.51
2019-02-02T10:51:10.941Z,85.13
2019-02-02T10:52:10.931Z,85.34
2019-02-02T10:53:10.914Z,85.49
2019-02-02T10:54:10.916Z,86.00
2019-02-02T10:55:10.897Z,86.83
2019-02-02T10:56:10.891Z,87.15
2019-02-02T10:57:10.877Z,87.29
2019-02-02T10:58:10.864Z,87.40
2019-02-02T10:59:10.863Z,87.60
2019-02-02T11:00:10.846Z,88.43
2019-02-02T11:01:10.882Z,88.19
2019-02-02T11:02:10.860Z,88.29
2019-02-02T11:03:10.809Z,88.29
2019-02-02T11:04:10.842Z,87.88
2019-02-02T11:05:10.814Z,87.46
2019-02-02T11:06:10.799Z,87.35
2019-02-02T11:07:10.818Z,87.15
2019-02-02T11:08:10.766Z,86.94
2019-02-02T11:09:10.819Z,87.46
2019-02-02T11:10:10.753Z,87.35
2019-02-02T11:11:10.792Z,87.60
2019-02-02T11:12:10.826Z,87.71
2019-02-02T11:13:10.748Z,88.23
2019-02-02T11:14:10.827Z,87.81
2019-02-02T11:15:10.694Z,88.64
2019-02-02T11:16:10.767Z,88.40
2019-02-02T11:17:10.712Z,88.29
2019-02-02T11:18:10.682Z,88.71
2019-02-02T11:19:10.802Z,88.60
2019-02-02T11:20:10.671Z,88.50
2019-02-02T11:21:10.664Z,88.50
2019-02-02T11:22:10.680Z,87.46
2019-02-02T11:23:10.751Z,86.94
2019-02-02T11:24:10.618Z,87.15
2019-02-02T11:25:10.625Z,86.94
2019-02-02T11:26:10.571Z,87.04
2019-02-02T11:27:12.515Z,86.63
2019-02-02T11:28:10.570Z,86.73
2019-02-02T11:29:10.552Z,86.52
2019-02-02T11:30:10.526Z,86.83
2019-02-02T11:31:10.516Z,87.04
2019-02-02T11:32:10.508Z,87.04
2019-02-02T11:33:10.494Z,87.04
2019-02-02T11:34:10.497Z,87.11
2019-02-02T11:35:10.477Z,87.11
2019-02-02T11:36:10.466Z,86.69
2019-02-02T11:37:10.455Z,86.38
2019-02-02T11:38:10.447Z,86.69
2019-02-02T11:39:10.456Z,86.90
2019-02-02T11:40:10.425Z,87.01
2019-02-02T11:41:10.411Z,87.01
2019-02-02T11:42:10.409Z,86.38
2019-02-02T11:43:10.400Z,85.96
2019-02-02T11:44:10.390Z,85.75
2019-02-02T11:45:10.388Z,86.27
2019-02-02T11:46:10.360Z,86.80
2019-02-02T11:47:10.349Z,86.69
2019-02-02T11:48:10.342Z,86.80
2019-02-02T11:49:10.359Z,86.80
2019-02-02T11:50:10.326Z,86.49
2019-02-02T11:51:10.310Z,86.59
2019-02-02T11:52:10.295Z,86.80
2019-02-02T11:53:10.298Z,86.69
2019-02-02T11:54:10.287Z,86.80
2019-02-02T11:55:10.266Z,87.01
2019-02-02T11:56:10.262Z,86.65
2019-02-02T11:57:10.250Z,87.01
2019-02-02T11:58:10.237Z,86.86
2019-02-02T11:59:10.232Z,86.96
2019-02-02T12:00:10.212Z,86.27
2019-02-02T12:01:10.207Z,86.27
2019-02-02T12:02:14.537Z,86.34
2019-02-02T12:03:10.181Z,86.59
2019-02-02T12:04:10.177Z,86.49
2019-02-02T12:05:10.160Z,86.69
2019-02-02T12:06:10.150Z,86.65
2019-02-02T12:07:10.143Z,86.90
2019-02-02T12:08:10.129Z,86.69
2019-02-02T12:09:10.139Z,86.86
2019-02-02T12:10:10.108Z,86.90
2019-02-02T12:11:10.099Z,86.49
2019-02-02T12:12:10.086Z,86.59
2019-02-02T12:13:10.074Z,86.59
2019-02-02T12:14:10.507Z,86.80
2019-02-02T12:15:10.058Z,87.11
2019-02-02T12:16:10.042Z,87.32
2019-02-02T12:17:10.056Z,87.11
2019-02-02T12:18:11.954Z,86.59
2019-02-02T12:19:10.021Z,86.69
2019-02-02T12:20:09.998Z,86.90
2019-02-02T12:21:09.987Z,86.96
2019-02-02T12:22:09.982Z,87.38
2019-02-02T12:23:09.965Z,86.69
2019-02-02T12:24:14.325Z,86.65
2019-02-02T12:25:10.961Z,86.96
2019-02-02T12:26:09.940Z,86.96
2019-02-02T12:27:09.925Z,86.96
2019-02-02T12:28:09.933Z,86.86
2019-02-02T12:29:09.916Z,86.96
2019-02-02T12:30:09.898Z,87.17
2019-02-02T12:31:09.886Z,86.65
2019-02-02T12:32:09.883Z,86.76
2019-02-02T12:33:09.861Z,87.38
2019-02-02T12:34:09.851Z,87.27
2019-02-02T12:35:09.851Z,86.44
2019-02-02T12:36:09.828Z,86.76
2019-02-02T12:37:09.820Z,86.55
2019-02-02T12:38:09.835Z,86.44
2019-02-02T12:39:09.803Z,86.96
2019-02-02T12:40:09.807Z,86.55
2019-02-02T12:41:09.782Z,87.13
2019-02-02T12:42:09.787Z,86.55
2019-02-02T12:43:11.595Z,86.96
2019-02-02T12:44:09.753Z,86.65
2019-02-02T12:45:09.747Z,86.55
2019-02-02T12:46:09.733Z,87.13
2019-02-02T12:47:09.713Z,86.72
2019-02-02T12:48:09.727Z,86.51
2019-02-02T12:49:09.699Z,87.07
2019-02-02T12:50:09.695Z,86.93
2019-02-02T12:51:09.694Z,87.45
2019-02-02T12:52:09.660Z,86.72